Wednesday, October 18, 2017, 3:39 AM EDT
Back to Local

KEWR, Newark International Airport

Location: Elizabeth, NJ, United States Lat: 40.683
Local Time: 3:39 AM EDT ( 7:39 GMT) Lon: -74.167
Time Zone: US/Eastern Elev: 16 ft

Show me the last for .
Show Decoded

2017-10-18 02:51 METAR KEWR 180651Z 22004KT 10SM CLR 08/02 A3029 RMK AO2 SLP256 T00780022 =
2017-10-18 01:51 METAR KEWR 180551Z 23006KT 10SM CLR 08/03 A3030 RMK AO2 SLP258 T00830028 10128
                 20083 56003 =
2017-10-18 00:51 METAR KEWR 180451Z 24007KT 10SM CLR 09/03 A3030 RMK AO2 SLP259 T00890033
                 401670044 =
2017-10-17 23:51 METAR KEWR 180351Z 20006KT 10SM CLR 08/03 A3030 RMK AO2 SLP259 T00830033 =
2017-10-17 22:51 METAR KEWR 180251Z 22005KT 10SM CLR 10/04 A3030 RMK AO2 SLP261 T01000039 53010 =
2017-10-17 21:51 METAR KEWR 180151Z 20010KT 10SM CLR 11/04 A3029 RMK AO2 SLP256 T01110039 =
2017-10-17 20:51 METAR KEWR 180051Z 19009KT 10SM CLR 12/05 A3028 RMK AO2 SLP254 T01170050 =
2017-10-17 19:51 METAR KEWR 172351Z 18008KT 10SM CLR 13/04 A3027 RMK AO2 SLP251 T01280044 10167
                 20128 53009 =
2017-10-17 18:51 METAR KEWR 172251Z 23009KT 10SM FEW250 14/00 A3026 RMK AO2 SLP247 T01390000 =
2017-10-17 17:51 METAR KEWR 172151Z 23010KT 10SM FEW250 15/M01 A3025 RMK AO2 SLP243 T01501011 =
2017-10-17 16:51 METAR KEWR 172051Z 21007KT 10SM FEW250 16/00 A3025 RMK AO2 SLP242 T01560000
                 56015 =
2017-10-17 15:51 METAR KEWR 171951Z VRB03KT 10SM FEW250 16/M01 A3026 RMK AO2 SLP247 T01561011 =
2017-10-17 14:51 METAR KEWR 171851Z COR 10SM CLR 16/M01 A3027 RMK AO2 SLP250 T01561011 =
2017-10-17 13:51 METAR KEWR 171751Z COR 00000KT 10SM CLR 15/M01 A3029 RMK AO2 SLP257 T01501006
                 10150 20067 58017 =
2017-10-17 12:51 METAR KEWR 171651Z 00000KT 10SM CLR 13/M01 A3031 RMK AO2 SLP265 T01331006 $ =
2017-10-17 11:51 METAR KEWR 171551Z 00000KT 10SM CLR 12/M01 A3033 RMK AO2 SLP272 T01171011 $ =
2017-10-17 10:51 METAR KEWR 171451Z 01005KT 10SM CLR 11/M01 A3034 RMK AO2 SLP275 T01061006 $ =
2017-10-17 09:51 METAR KEWR 171351Z 02010KT 10SM FEW037 09/00 A3035 RMK AO2 SLP278 T00940000 $ =
2017-10-17 08:51 METAR KEWR 171251Z COR 01008KT 10SM FEW032 08/01 A3035 RMK AO2 SLP278 T00830011
                 $ =
2017-10-17 07:51 METAR KEWR 171151Z COR 35008KT 10SM FEW025 FEW250 07/01 A3033 RMK AO2 SLP271
                 T00670006 10078 20044 51017 $ =
2017-10-17 06:51 METAR KEWR 171051Z COR 35006KT 10SM FEW025 SCT250 06/01 A3032 RMK AO2 SLP268
                 T00560006 $ =
2017-10-17 05:51 METAR KEWR 170951Z COR 36005KT 10SM CLR 06/00 A3030 RMK AO2 SLP261 T00560000 $ =
2017-10-17 05:14 METAR KEWR 170914Z COR 34008KT 10SM CLR 06/00 A3028 RMK AO2 T00610000 $ =
2017-10-17 04:51 METAR KEWR 170851Z 34007KT 10SM CLR 06/00 A3028 RMK AO2 SLP251 T00610000 53012 $
                 =
2017-10-17 03:51 METAR KEWR 170751Z 34008KT 10SM CLR 07/M01 A3026 RMK AO2 SLP245 T00671006 $ =

Support USWX by starting your Amazon purchase here.